Terminal Aerodrome Forecast
Issued by NWS Charleston, WV

Current Version | Previous Version | Graphics & Text | Print | Product List | Glossary On
Versions: 1 2 3 4 5 6 7 8 9 10 11 12 13 14 15 16 17 18 19 20 21 22 23 24 25 26
010
FTUS41 KRLX 181130
TAFHTS
TAF
KHTS 181130Z 1812/1912 07007KT P6SM SCT012
     FM181300 07008KT P6SM BKN045
     FM181700 08008G15KT P6SM SHRA VCTS OVC050CB
     FM182300 17004KT P6SM SHRA OVC050
     FM190000 07004KT P6SM OVC060=

USA.gov is the U.S. government's official web portal to all federal, state and local government web resources and services.